»·PEaware :: N172DG L58-L88

N172DG :: L58-L88

FLIGHT INFORMATION

Flight Status: Arrived
Operator: Privately registered:
United States
More flights under this callsign
Pilot: Daniel G. (21250)
Aircraft: CESSNA 172 SKYHAWK
(C172)
More flights by this aircraft type
Origin: L58
Destination: L88 New Cuyama
United States
More flights between these airports :: More routes between these airports
Route: L58 L88
File this flight plan on PilotEdge
Remarks: CAT 1
Altitude:
(Current/Filed)
4,000ft
Speed:
(Current/Filed)
0kts
Departed: 26-Dec-18 02:59 PM
Arrived: 26-Dec-18 03:48 PM
Distance/Time
Traveled:
Not Available
Distance/Time
To Go:
Arrived

Flight Plot

Page will automatically refresh every two minutes.

Flight plan parsing failed; only flown route is shown


Map Options




Map Legend


Flown Route
Filed Route
Departure Airport
Arrival Airport
Navaid (VOR, NDB)
Fix

Horizontal Profiles

Position Reports

Time Latitude Longitude Heading Altitude Ground
Speed
26-Dec-18 14:49 35.102759 -120.623558 202 18ft 0kts
26-Dec-18 14:50 35.102759 -120.623558 202 18ft 0kts
26-Dec-18 14:51 35.102759 -120.623558 202 18ft 0kts
26-Dec-18 14:52 35.102759 -120.623558 202 18ft 0kts
26-Dec-18 14:53 35.102759 -120.623558 202 18ft 0kts
26-Dec-18 14:54 35.102759 -120.623558 202 18ft 0kts
26-Dec-18 14:55 35.102759 -120.623558 202 18ft 0kts
26-Dec-18 14:56 35.101866 -120.622300 210 18ft 1kts
26-Dec-18 14:57 35.099575 -120.619555 49 18ft 0kts
26-Dec-18 14:58 35.101724 -120.622737 303 32ft 58kts
26-Dec-18 14:59 35.109649 -120.642428 297 706ft 65kts
26-Dec-18 15:00 35.119234 -120.660403 344 1387ft 64kts
26-Dec-18 15:01 35.136030 -120.652234 71 1989ft 80kts
26-Dec-18 15:05 35.103377 -120.624692 212 18ft 0kts
26-Dec-18 15:06 35.103377 -120.624692 212 18ft 0kts
26-Dec-18 15:07 35.103377 -120.624692 212 18ft 0kts
26-Dec-18 15:08 35.103377 -120.624692 212 18ft 0kts
26-Dec-18 15:09 35.103377 -120.624692 212 18ft 0kts
26-Dec-18 15:10 35.103198 -120.624508 122 18ft 2kts
26-Dec-18 15:11 35.102817 -120.623905 203 18ft 0kts
26-Dec-18 15:12 35.101655 -120.623547 123 18ft 13kts
26-Dec-18 15:13 35.099551 -120.619524 78 18ft 0kts
26-Dec-18 15:14 35.104813 -120.628731 307 197ft 68kts
26-Dec-18 15:15 35.109010 -120.649929 216 878ft 87kts
26-Dec-18 15:16 35.090014 -120.641650 115 1497ft 86kts
26-Dec-18 15:17 35.076187 -120.617125 115 2106ft 88kts
26-Dec-18 15:18 35.069035 -120.589693 96 2683ft 85kts
26-Dec-18 15:19 35.065010 -120.561674 84 3219ft 85kts
26-Dec-18 15:20 35.060022 -120.532611 95 3725ft 89kts
26-Dec-18 15:21 35.051361 -120.502812 100 4025ft 98kts
26-Dec-18 15:22 35.044901 -120.468034 94 4029ft 112kts
26-Dec-18 15:23 35.039075 -120.428099 91 3950ft 118kts
26-Dec-18 15:24 35.034499 -120.389922 94 3985ft 112kts
26-Dec-18 15:25 35.026568 -120.354139 92 4060ft 108kts
26-Dec-18 15:26 35.020206 -120.316467 96 3990ft 115kts
26-Dec-18 15:27 35.015164 -120.279035 87 3983ft 113kts
26-Dec-18 15:28 35.014498 -120.241210 83 3963ft 111kts
26-Dec-18 15:29 35.021645 -120.207099 38 3905ft 100kts
26-Dec-18 15:30 35.039709 -120.182366 36 3928ft 95kts
26-Dec-18 15:31 35.056570 -120.158012 36 3973ft 93kts
26-Dec-18 15:32 35.074424 -120.134332 32 3976ft 94kts
26-Dec-18 15:33 35.085466 -120.104320 75 4007ft 107kts
26-Dec-18 15:34 35.080941 -120.067211 113 4008ft 116kts
26-Dec-18 15:35 35.068002 -120.030577 101 3975ft 121kts
26-Dec-18 15:36 35.056466 -119.991374 110 3953ft 122kts
26-Dec-18 15:37 35.044187 -119.953403 112 3993ft 120kts
26-Dec-18 15:38 35.030690 -119.917506 109 4006ft 125kts
26-Dec-18 15:39 35.018103 -119.876618 107 3917ft 126kts
26-Dec-18 15:40 35.005421 -119.839606 111 4043ft 117kts
26-Dec-18 15:41 34.989688 -119.804841 116 4038ft 125kts
26-Dec-18 15:42 34.974200 -119.765257 110 3944ft 129kts
26-Dec-18 15:43 34.956755 -119.734720 160 3670ft 84kts
26-Dec-18 15:44 34.940063 -119.712836 112 3253ft 97kts
26-Dec-18 15:46 34.931933 -119.684425 121 2940ft 82kts
26-Dec-18 15:47 34.935821 -119.668072 276 2555ft 55kts
26-Dec-18 15:48 34.939155 -119.683266 299 2207ft 23kts
26-Dec-18 15:49 34.940418 -119.686777 295 2207ft 20kts
26-Dec-18 15:50 34.942467 -119.690922 316 2207ft 6kts
26-Dec-18 15:51 34.943117 -119.691124 193 2207ft 0kts
26-Dec-18 15:52 34.943117 -119.691124 193 2207ft 0kts
26-Dec-18 15:53 34.943117 -119.691124 193 2207ft 0kts
26-Dec-18 15:54 34.943117 -119.691124 193 2207ft 0kts
26-Dec-18 15:55 34.943117 -119.691124 193 2207ft 0kts
26-Dec-18 15:56 34.943117 -119.691124 193 2207ft 0kts
26-Dec-18 15:57 34.943117 -119.691124 193 2207ft 0kts

Navigation Log

Ident Type
Flight plan parsing failed, navigation log unavailable